sensor_id;sensor_type;location;lat;lon;timestamp;P1;durP1;ratioP1;P2;durP2;ratioP2
66087;SDS011;52872;52.994;6.940;2024-02-14T00:01:15;7.65;;;5.50;;
66087;SDS011;52872;52.994;6.940;2024-02-14T00:03:42;6.82;;;6.07;;
66087;SDS011;52872;52.994;6.940;2024-02-14T00:06:10;9.40;;;5.90;;
66087;SDS011;52872;52.994;6.940;2024-02-14T00:08:38;13.02;;;6.55;;
66087;SDS011;52872;52.994;6.940;2024-02-14T00:11:06;6.72;;;5.70;;
66087;SDS011;52872;52.994;6.940;2024-02-14T00:13:33;7.50;;;6.78;;
66087;SDS011;52872;52.994;6.940;2024-02-14T00:16:01;7.45;;;6.57;;
66087;SDS011;52872;52.994;6.940;2024-02-14T00:18:29;6.82;;;5.25;;
66087;SDS011;52872;52.994;6.940;2024-02-14T00:20:57;8.07;;;5.65;;
66087;SDS011;52872;52.994;6.940;2024-02-14T00:23:24;8.35;;;5.90;;
66087;SDS011;52872;52.994;6.940;2024-02-14T00:25:51;5.10;;;4.60;;
66087;SDS011;52872;52.994;6.940;2024-02-14T00:28:19;5.68;;;4.95;;
66087;SDS011;52872;52.994;6.940;2024-02-14T00:30:46;5.38;;;4.88;;
66087;SDS011;52872;52.994;6.940;2024-02-14T00:33:13;9.00;;;5.45;;
66087;SDS011;52872;52.994;6.940;2024-02-14T00:35:40;7.45;;;5.85;;
66087;SDS011;52872;52.994;6.940;2024-02-14T00:38:08;8.00;;;5.75;;
66087;SDS011;52872;52.994;6.940;2024-02-14T00:40:36;6.18;;;5.57;;
66087;SDS011;52872;52.994;6.940;2024-02-14T00:43:03;6.18;;;5.38;;
66087;SDS011;52872;52.994;6.940;2024-02-14T00:45:30;8.18;;;7.22;;
66087;SDS011;52872;52.994;6.940;2024-02-14T00:47:58;9.80;;;8.95;;
66087;SDS011;52872;52.994;6.940;2024-02-14T00:50:25;9.18;;;8.25;;
66087;SDS011;52872;52.994;6.940;2024-02-14T00:52:52;4.47;;;3.70;;
66087;SDS011;52872;52.994;6.940;2024-02-14T00:55:19;7.40;;;6.15;;
66087;SDS011;52872;52.994;6.940;2024-02-14T00:57:47;11.95;;;10.95;;
66087;SDS011;52872;52.994;6.940;2024-02-14T01:00:15;7.00;;;6.18;;
66087;SDS011;52872;52.994;6.940;2024-02-14T01:02:43;8.68;;;7.88;;
66087;SDS011;52872;52.994;6.940;2024-02-14T01:05:11;10.10;;;9.13;;
66087;SDS011;52872;52.994;6.940;2024-02-14T01:07:38;9.60;;;8.80;;
66087;SDS011;52872;52.994;6.940;2024-02-14T01:10:06;8.52;;;7.78;;
66087;SDS011;52872;52.994;6.940;2024-02-14T01:12:33;6.07;;;5.50;;
66087;SDS011;52872;52.994;6.940;2024-02-14T01:15:00;8.23;;;7.40;;
66087;SDS011;52872;52.994;6.940;2024-02-14T01:17:27;9.60;;;7.97;;
66087;SDS011;52872;52.994;6.940;2024-02-14T01:19:55;10.57;;;9.68;;
66087;SDS011;52872;52.994;6.940;2024-02-14T01:22:22;8.70;;;7.85;;
66087;SDS011;52872;52.994;6.940;2024-02-14T01:24:49;8.98;;;8.13;;
66087;SDS011;52872;52.994;6.940;2024-02-14T01:27:17;9.27;;;6.18;;
66087;SDS011;52872;52.994;6.940;2024-02-14T01:29:45;6.80;;;6.18;;
66087;SDS011;52872;52.994;6.940;2024-02-14T01:32:12;6.25;;;5.18;;
66087;SDS011;52872;52.994;6.940;2024-02-14T01:34:39;6.30;;;5.53;;
66087;SDS011;52872;52.994;6.940;2024-02-14T01:37:09;6.85;;;5.15;;
66087;SDS011;52872;52.994;6.940;2024-02-14T01:39:36;8.40;;;7.60;;
66087;SDS011;52872;52.994;6.940;2024-02-14T01:42:03;8.13;;;7.38;;
66087;SDS011;52872;52.994;6.940;2024-02-14T01:44:34;10.07;;;9.10;;
66087;SDS011;52872;52.994;6.940;2024-02-14T01:47:03;8.70;;;7.80;;
66087;SDS011;52872;52.994;6.940;2024-02-14T01:49:30;7.85;;;7.07;;
66087;SDS011;52872;52.994;6.940;2024-02-14T01:51:59;7.28;;;6.38;;
66087;SDS011;52872;52.994;6.940;2024-02-14T01:54:29;5.03;;;4.63;;
66087;SDS011;52872;52.994;6.940;2024-02-14T01:56:57;8.60;;;7.38;;
66087;SDS011;52872;52.994;6.940;2024-02-14T01:59:25;4.57;;;4.18;;
66087;SDS011;52872;52.994;6.940;2024-02-14T02:04:56;7.78;;;7.07;;
66087;SDS011;52872;52.994;6.940;2024-02-14T02:07:23;4.75;;;4.35;;
66087;SDS011;52872;52.994;6.940;2024-02-14T02:09:51;5.30;;;4.88;;
66087;SDS011;52872;52.994;6.940;2024-02-14T02:12:19;3.83;;;3.42;;
66087;SDS011;52872;52.994;6.940;2024-02-14T02:14:54;4.63;;;4.22;;
66087;SDS011;52872;52.994;6.940;2024-02-14T02:17:21;5.28;;;4.70;;
66087;SDS011;52872;52.994;6.940;2024-02-14T02:19:48;5.10;;;4.53;;
66087;SDS011;52872;52.994;6.940;2024-02-14T02:22:15;5.43;;;4.78;;
66087;SDS011;52872;52.994;6.940;2024-02-14T02:24:44;4.38;;;3.83;;
66087;SDS011;52872;52.994;6.940;2024-02-14T02:27:11;4.53;;;4.13;;
66087;SDS011;52872;52.994;6.940;2024-02-14T02:29:40;4.97;;;4.10;;
66087;SDS011;52872;52.994;6.940;2024-02-14T02:32:07;3.88;;;3.58;;
66087;SDS011;52872;52.994;6.940;2024-02-14T02:34:36;5.07;;;4.68;;
66087;SDS011;52872;52.994;6.940;2024-02-14T02:37:05;3.92;;;3.63;;
66087;SDS011;52872;52.994;6.940;2024-02-14T02:39:34;4.65;;;4.25;;
66087;SDS011;52872;52.994;6.940;2024-02-14T02:42:02;5.20;;;4.75;;
66087;SDS011;52872;52.994;6.940;2024-02-14T02:44:31;5.85;;;5.22;;
66087;SDS011;52872;52.994;6.940;2024-02-14T02:46:58;3.92;;;3.53;;
66087;SDS011;52872;52.994;6.940;2024-02-14T02:49:27;3.70;;;3.40;;
66087;SDS011;52872;52.994;6.940;2024-02-14T02:51:55;4.10;;;3.70;;
66087;SDS011;52872;52.994;6.940;2024-02-14T02:54:22;3.55;;;3.25;;
66087;SDS011;52872;52.994;6.940;2024-02-14T02:56:50;3.92;;;3.58;;
66087;SDS011;52872;52.994;6.940;2024-02-14T02:59:17;2.97;;;2.65;;
66087;SDS011;52872;52.994;6.940;2024-02-14T03:01:44;4.45;;;4.05;;
66087;SDS011;52872;52.994;6.940;2024-02-14T03:04:15;3.78;;;3.47;;
66087;SDS011;52872;52.994;6.940;2024-02-14T03:09:13;2.90;;;2.67;;
66087;SDS011;52872;52.994;6.940;2024-02-14T03:11:41;4.30;;;3.88;;
66087;SDS011;52872;52.994;6.940;2024-02-14T03:14:08;3.90;;;3.60;;
66087;SDS011;52872;52.994;6.940;2024-02-14T03:16:35;4.35;;;3.95;;
66087;SDS011;52872;52.994;6.940;2024-02-14T03:19:04;3.05;;;2.75;;
66087;SDS011;52872;52.994;6.940;2024-02-14T03:21:31;4.00;;;3.70;;
66087;SDS011;52872;52.994;6.940;2024-02-14T03:23:59;2.97;;;2.60;;
66087;SDS011;52872;52.994;6.940;2024-02-14T03:26:26;7.03;;;3.53;;
66087;SDS011;52872;52.994;6.940;2024-02-14T03:28:53;3.70;;;3.40;;
66087;SDS011;52872;52.994;6.940;2024-02-14T03:31:21;3.78;;;3.47;;
66087;SDS011;52872;52.994;6.940;2024-02-14T03:33:48;3.25;;;3.03;;
66087;SDS011;52872;52.994;6.940;2024-02-14T03:36:16;2.92;;;2.72;;
66087;SDS011;52872;52.994;6.940;2024-02-14T03:38:43;2.28;;;2.10;;
66087;SDS011;52872;52.994;6.940;2024-02-14T03:41:10;3.92;;;3.50;;
66087;SDS011;52872;52.994;6.940;2024-02-14T03:43:37;3.72;;;2.72;;
66087;SDS011;52872;52.994;6.940;2024-02-14T03:46:04;3.25;;;2.92;;
66087;SDS011;52872;52.994;6.940;2024-02-14T03:48:31;3.13;;;2.92;;
66087;SDS011;52872;52.994;6.940;2024-02-14T03:50:59;3.92;;;3.63;;
66087;SDS011;52872;52.994;6.940;2024-02-14T03:53:26;3.63;;;3.33;;
66087;SDS011;52872;52.994;6.940;2024-02-14T03:55:54;3.20;;;2.97;;
66087;SDS011;52872;52.994;6.940;2024-02-14T03:58:21;3.60;;;3.30;;
66087;SDS011;52872;52.994;6.940;2024-02-14T04:00:51;3.25;;;2.33;;
66087;SDS011;52872;52.994;6.940;2024-02-14T04:03:19;2.78;;;2.58;;
66087;SDS011;52872;52.994;6.940;2024-02-14T04:05:46;2.38;;;2.17;;
66087;SDS011;52872;52.994;6.940;2024-02-14T04:08:14;2.72;;;2.40;;
66087;SDS011;52872;52.994;6.940;2024-02-14T04:10:41;4.45;;;3.03;;
66087;SDS011;52872;52.994;6.940;2024-02-14T04:13:10;3.03;;;2.63;;
66087;SDS011;52872;52.994;6.940;2024-02-14T04:15:37;3.35;;;3.10;;
66087;SDS011;52872;52.994;6.940;2024-02-14T04:18:05;3.13;;;2.58;;
66087;SDS011;52872;52.994;6.940;2024-02-14T04:20:36;3.63;;;3.33;;
66087;SDS011;52872;52.994;6.940;2024-02-14T04:23:03;3.30;;;3.00;;
66087;SDS011;52872;52.994;6.940;2024-02-14T04:25:33;3.63;;;3.10;;
66087;SDS011;52872;52.994;6.940;2024-02-14T04:28:05;3.40;;;3.08;;
66087;SDS011;52872;52.994;6.940;2024-02-14T04:30:32;4.22;;;3.83;;
66087;SDS011;52872;52.994;6.940;2024-02-14T04:33:00;2.70;;;2.50;;
66087;SDS011;52872;52.994;6.940;2024-02-14T04:35:27;3.05;;;2.67;;
66087;SDS011;52872;52.994;6.940;2024-02-14T04:37:54;2.78;;;2.45;;
66087;SDS011;52872;52.994;6.940;2024-02-14T04:40:21;3.85;;;3.55;;
66087;SDS011;52872;52.994;6.940;2024-02-14T04:42:49;3.55;;;3.25;;
66087;SDS011;52872;52.994;6.940;2024-02-14T04:45:16;2.80;;;2.50;;
66087;SDS011;52872;52.994;6.940;2024-02-14T04:47:43;3.47;;;3.17;;
66087;SDS011;52872;52.994;6.940;2024-02-14T04:50:11;3.53;;;3.08;;
66087;SDS011;52872;52.994;6.940;2024-02-14T04:52:38;2.75;;;2.55;;
66087;SDS011;52872;52.994;6.940;2024-02-14T04:55:05;3.45;;;3.17;;
66087;SDS011;52872;52.994;6.940;2024-02-14T04:57:33;3.35;;;3.05;;
66087;SDS011;52872;52.994;6.940;2024-02-14T05:00:02;2.95;;;2.60;;
66087;SDS011;52872;52.994;6.940;2024-02-14T05:02:31;2.60;;;2.03;;
66087;SDS011;52872;52.994;6.940;2024-02-14T05:04:58;2.90;;;2.65;;
66087;SDS011;52872;52.994;6.940;2024-02-14T05:07:26;2.67;;;2.47;;
66087;SDS011;52872;52.994;6.940;2024-02-14T05:09:53;3.33;;;3.05;;
66087;SDS011;52872;52.994;6.940;2024-02-14T05:12:22;2.85;;;2.58;;
66087;SDS011;52872;52.994;6.940;2024-02-14T05:14:50;3.20;;;3.00;;
66087;SDS011;52872;52.994;6.940;2024-02-14T05:17:17;4.72;;;3.72;;
66087;SDS011;52872;52.994;6.940;2024-02-14T05:19:44;4.80;;;4.40;;
66087;SDS011;52872;52.994;6.940;2024-02-14T05:22:11;3.65;;;3.38;;
66087;SDS011;52872;52.994;6.940;2024-02-14T05:24:38;3.58;;;3.20;;
66087;SDS011;52872;52.994;6.940;2024-02-14T05:27:05;3.17;;;2.67;;
66087;SDS011;52872;52.994;6.940;2024-02-14T05:29:33;2.85;;;2.33;;
66087;SDS011;52872;52.994;6.940;2024-02-14T05:32:01;3.35;;;2.78;;
66087;SDS011;52872;52.994;6.940;2024-02-14T05:34:29;3.78;;;3.42;;
66087;SDS011;52872;52.994;6.940;2024-02-14T05:36:56;3.65;;;2.50;;
66087;SDS011;52872;52.994;6.940;2024-02-14T05:39:23;5.20;;;4.70;;
66087;SDS011;52872;52.994;6.940;2024-02-14T05:41:50;2.90;;;2.58;;
66087;SDS011;52872;52.994;6.940;2024-02-14T05:44:20;3.25;;;2.92;;
66087;SDS011;52872;52.994;6.940;2024-02-14T05:46:49;5.18;;;4.78;;
66087;SDS011;52872;52.994;6.940;2024-02-14T05:49:16;3.03;;;2.72;;
66087;SDS011;52872;52.994;6.940;2024-02-14T05:51:43;3.13;;;2.83;;
66087;SDS011;52872;52.994;6.940;2024-02-14T05:54:11;3.85;;;3.42;;
66087;SDS011;52872;52.994;6.940;2024-02-14T05:56:38;5.53;;;5.03;;
66087;SDS011;52872;52.994;6.940;2024-02-14T05:59:05;4.03;;;3.63;;
66087;SDS011;52872;52.994;6.940;2024-02-14T06:01:32;4.47;;;3.67;;
66087;SDS011;52872;52.994;6.940;2024-02-14T06:04:00;3.53;;;3.22;;
66087;SDS011;52872;52.994;6.940;2024-02-14T06:06:27;3.80;;;3.45;;
66087;SDS011;52872;52.994;6.940;2024-02-14T06:08:54;4.03;;;3.13;;
66087;SDS011;52872;52.994;6.940;2024-02-14T06:11:24;4.20;;;3.80;;
66087;SDS011;52872;52.994;6.940;2024-02-14T06:13:51;3.38;;;3.08;;
66087;SDS011;52872;52.994;6.940;2024-02-14T06:16:19;3.45;;;3.15;;
66087;SDS011;52872;52.994;6.940;2024-02-14T06:18:46;4.00;;;3.60;;
66087;SDS011;52872;52.994;6.940;2024-02-14T06:21:14;2.67;;;2.47;;
66087;SDS011;52872;52.994;6.940;2024-02-14T06:23:41;4.60;;;4.25;;
66087;SDS011;52872;52.994;6.940;2024-02-14T06:26:09;3.03;;;2.72;;
66087;SDS011;52872;52.994;6.940;2024-02-14T06:28:36;3.03;;;2.83;;
66087;SDS011;52872;52.994;6.940;2024-02-14T06:31:03;3.40;;;2.85;;
66087;SDS011;52872;52.994;6.940;2024-02-14T06:33:30;2.58;;;2.38;;
66087;SDS011;52872;52.994;6.940;2024-02-14T06:35:58;3.50;;;2.70;;
66087;SDS011;52872;52.994;6.940;2024-02-14T06:38:26;3.65;;;3.35;;
66087;SDS011;52872;52.994;6.940;2024-02-14T06:40:53;2.78;;;2.30;;
66087;SDS011;52872;52.994;6.940;2024-02-14T06:43:20;3.50;;;3.20;;
66087;SDS011;52872;52.994;6.940;2024-02-14T06:45:49;3.67;;;3.38;;
66087;SDS011;52872;52.994;6.940;2024-02-14T06:48:20;2.88;;;2.65;;
66087;SDS011;52872;52.994;6.940;2024-02-14T06:50:50;2.47;;;2.22;;
66087;SDS011;52872;52.994;6.940;2024-02-14T06:53:17;3.38;;;3.08;;
66087;SDS011;52872;52.994;6.940;2024-02-14T06:55:44;2.75;;;2.30;;
66087;SDS011;52872;52.994;6.940;2024-02-14T06:58:13;2.60;;;2.40;;
66087;SDS011;52872;52.994;6.940;2024-02-14T07:00:40;2.67;;;2.38;;
66087;SDS011;52872;52.994;6.940;2024-02-14T07:03:07;3.20;;;2.30;;
66087;SDS011;52872;52.994;6.940;2024-02-14T07:05:35;2.00;;;1.83;;
66087;SDS011;52872;52.994;6.940;2024-02-14T07:08:03;3.80;;;3.50;;
66087;SDS011;52872;52.994;6.940;2024-02-14T07:10:30;4.15;;;3.67;;
66087;SDS011;52872;52.994;6.940;2024-02-14T07:12:59;3.65;;;3.28;;
66087;SDS011;52872;52.994;6.940;2024-02-14T07:15:26;4.68;;;4.38;;
66087;SDS011;52872;52.994;6.940;2024-02-14T07:17:55;6.70;;;4.32;;
66087;SDS011;52872;52.994;6.940;2024-02-14T07:20:24;6.95;;;4.72;;
66087;SDS011;52872;52.994;6.940;2024-02-14T07:22:53;8.23;;;6.50;;
66087;SDS011;52872;52.994;6.940;2024-02-14T07:25:22;4.75;;;3.95;;
66087;SDS011;52872;52.994;6.940;2024-02-14T07:27:49;9.52;;;4.72;;
66087;SDS011;52872;52.994;6.940;2024-02-14T07:30:16;10.88;;;7.22;;
66087;SDS011;52872;52.994;6.940;2024-02-14T07:32:44;8.68;;;7.13;;
66087;SDS011;52872;52.994;6.940;2024-02-14T07:35:12;6.47;;;5.30;;
66087;SDS011;52872;52.994;6.940;2024-02-14T07:37:43;8.82;;;6.60;;
66087;SDS011;52872;52.994;6.940;2024-02-14T07:40:11;9.00;;;6.72;;
66087;SDS011;52872;52.994;6.940;2024-02-14T07:42:40;10.57;;;9.48;;
66087;SDS011;52872;52.994;6.940;2024-02-14T07:45:07;9.75;;;7.38;;
66087;SDS011;52872;52.994;6.940;2024-02-14T07:47:35;9.85;;;6.65;;
66087;SDS011;52872;52.994;6.940;2024-02-14T07:50:02;9.20;;;5.82;;
66087;SDS011;52872;52.994;6.940;2024-02-14T07:52:30;14.48;;;7.10;;
66087;SDS011;52872;52.994;6.940;2024-02-14T07:55:00;8.48;;;6.00;;
66087;SDS011;52872;52.994;6.940;2024-02-14T07:57:27;7.25;;;5.63;;
66087;SDS011;52872;52.994;6.940;2024-02-14T07:59:55;6.85;;;4.60;;
66087;SDS011;52872;52.994;6.940;2024-02-14T08:02:22;6.15;;;4.90;;
66087;SDS011;52872;52.994;6.940;2024-02-14T08:04:49;6.13;;;4.13;;
66087;SDS011;52872;52.994;6.940;2024-02-14T08:07:18;5.85;;;4.07;;
66087;SDS011;52872;52.994;6.940;2024-02-14T08:09:45;7.68;;;3.88;;
66087;SDS011;52872;52.994;6.940;2024-02-14T08:12:12;4.53;;;3.67;;
66087;SDS011;52872;52.994;6.940;2024-02-14T08:14:40;5.53;;;3.85;;
66087;SDS011;52872;52.994;6.940;2024-02-14T08:17:07;7.50;;;5.38;;
66087;SDS011;52872;52.994;6.940;2024-02-14T08:19:35;7.07;;;4.80;;
66087;SDS011;52872;52.994;6.940;2024-02-14T08:22:03;6.70;;;4.80;;
66087;SDS011;52872;52.994;6.940;2024-02-14T08:24:30;6.68;;;6.00;;
66087;SDS011;52872;52.994;6.940;2024-02-14T08:26:57;4.00;;;3.42;;
66087;SDS011;52872;52.994;6.940;2024-02-14T08:29:24;5.00;;;4.55;;
66087;SDS011;52872;52.994;6.940;2024-02-14T08:31:52;9.52;;;4.88;;
66087;SDS011;52872;52.994;6.940;2024-02-14T08:34:19;7.82;;;6.65;;
66087;SDS011;52872;52.994;6.940;2024-02-14T08:36:47;6.20;;;3.60;;
66087;SDS011;52872;52.994;6.940;2024-02-14T08:39:14;7.18;;;6.18;;
66087;SDS011;52872;52.994;6.940;2024-02-14T08:41:43;6.28;;;4.63;;
66087;SDS011;52872;52.994;6.940;2024-02-14T08:44:11;4.35;;;3.35;;
66087;SDS011;52872;52.994;6.940;2024-02-14T08:46:38;5.50;;;4.95;;
66087;SDS011;52872;52.994;6.940;2024-02-14T08:49:05;6.70;;;5.20;;
66087;SDS011;52872;52.994;6.940;2024-02-14T08:51:37;6.93;;;5.07;;
66087;SDS011;52872;52.994;6.940;2024-02-14T08:54:04;5.97;;;4.65;;
66087;SDS011;52872;52.994;6.940;2024-02-14T08:56:33;8.38;;;5.15;;
66087;SDS011;52872;52.994;6.940;2024-02-14T08:59:00;11.65;;;6.18;;
66087;SDS011;52872;52.994;6.940;2024-02-14T09:01:29;10.00;;;6.60;;
66087;SDS011;52872;52.994;6.940;2024-02-14T09:03:57;12.07;;;7.10;;
66087;SDS011;52872;52.994;6.940;2024-02-14T09:06:25;11.15;;;6.90;;
66087;SDS011;52872;52.994;6.940;2024-02-14T09:08:53;14.73;;;10.20;;
66087;SDS011;52872;52.994;6.940;2024-02-14T09:11:21;12.40;;;9.60;;
66087;SDS011;52872;52.994;6.940;2024-02-14T09:13:49;11.98;;;6.53;;
66087;SDS011;52872;52.994;6.940;2024-02-14T09:16:20;13.48;;;10.43;;
66087;SDS011;52872;52.994;6.940;2024-02-14T09:18:49;10.70;;;6.28;;
66087;SDS011;52872;52.994;6.940;2024-02-14T09:21:16;11.93;;;8.82;;
66087;SDS011;52872;52.994;6.940;2024-02-14T09:23:46;10.68;;;6.97;;
66087;SDS011;52872;52.994;6.940;2024-02-14T09:26:14;12.30;;;8.13;;
66087;SDS011;52872;52.994;6.940;2024-02-14T09:28:43;13.02;;;8.65;;
66087;SDS011;52872;52.994;6.940;2024-02-14T09:31:10;13.65;;;8.65;;
66087;SDS011;52872;52.994;6.940;2024-02-14T09:33:38;12.90;;;8.18;;
66087;SDS011;52872;52.994;6.940;2024-02-14T09:36:06;16.27;;;12.38;;
66087;SDS011;52872;52.994;6.940;2024-02-14T09:38:34;14.57;;;9.68;;
66087;SDS011;52872;52.994;6.940;2024-02-14T09:43:43;15.00;;;9.75;;
66087;SDS011;52872;52.994;6.940;2024-02-14T09:46:14;14.80;;;13.15;;
66087;SDS011;52872;52.994;6.940;2024-02-14T09:48:43;15.73;;;9.52;;
66087;SDS011;52872;52.994;6.940;2024-02-14T09:51:12;17.27;;;9.93;;
66087;SDS011;52872;52.994;6.940;2024-02-14T09:53:39;17.77;;;10.20;;
66087;SDS011;52872;52.994;6.940;2024-02-14T09:56:11;18.67;;;10.63;;
66087;SDS011;52872;52.994;6.940;2024-02-14T09:58:40;17.23;;;12.52;;
66087;SDS011;52872;52.994;6.940;2024-02-14T10:01:07;15.30;;;12.00;;
66087;SDS011;52872;52.994;6.940;2024-02-14T10:03:35;14.30;;;9.27;;
66087;SDS011;52872;52.994;6.940;2024-02-14T10:06:03;14.07;;;7.97;;
66087;SDS011;52872;52.994;6.940;2024-02-14T10:08:31;15.55;;;10.07;;
66087;SDS011;52872;52.994;6.940;2024-02-14T10:10:59;14.05;;;10.07;;
66087;SDS011;52872;52.994;6.940;2024-02-14T10:13:27;12.20;;;9.38;;
66087;SDS011;52872;52.994;6.940;2024-02-14T10:15:55;11.98;;;8.30;;
66087;SDS011;52872;52.994;6.940;2024-02-14T10:18:22;12.65;;;9.45;;
66087;SDS011;52872;52.994;6.940;2024-02-14T10:20:56;14.48;;;10.65;;
66087;SDS011;52872;52.994;6.940;2024-02-14T10:23:23;16.25;;;10.15;;
66087;SDS011;52872;52.994;6.940;2024-02-14T10:25:54;15.25;;;10.23;;
66087;SDS011;52872;52.994;6.940;2024-02-14T10:28:23;12.00;;;10.13;;
66087;SDS011;52872;52.994;6.940;2024-02-14T10:30:55;12.20;;;8.43;;
66087;SDS011;52872;52.994;6.940;2024-02-14T10:33:23;12.57;;;8.20;;
66087;SDS011;52872;52.994;6.940;2024-02-14T10:35:53;12.50;;;7.35;;
66087;SDS011;52872;52.994;6.940;2024-02-14T10:38:23;11.18;;;7.57;;
66087;SDS011;52872;52.994;6.940;2024-02-14T10:40:52;12.32;;;10.40;;
66087;SDS011;52872;52.994;6.940;2024-02-14T10:43:20;13.07;;;8.77;;
66087;SDS011;52872;52.994;6.940;2024-02-14T10:45:47;15.68;;;11.20;;
66087;SDS011;52872;52.994;6.940;2024-02-14T10:48:16;14.40;;;9.30;;
66087;SDS011;52872;52.994;6.940;2024-02-14T10:50:45;11.80;;;8.40;;
66087;SDS011;52872;52.994;6.940;2024-02-14T10:55:47;13.45;;;11.38;;
66087;SDS011;52872;52.994;6.940;2024-02-14T10:58:16;13.05;;;10.98;;
66087;SDS011;52872;52.994;6.940;2024-02-14T11:00:43;10.02;;;7.50;;
66087;SDS011;52872;52.994;6.940;2024-02-14T11:03:12;15.73;;;10.10;;
66087;SDS011;52872;52.994;6.940;2024-02-14T11:05:45;18.35;;;14.45;;
66087;SDS011;52872;52.994;6.940;2024-02-14T11:08:19;19.67;;;17.00;;
66087;SDS011;52872;52.994;6.940;2024-02-14T11:10:54;15.55;;;12.73;;
66087;SDS011;52872;52.994;6.940;2024-02-14T11:13:26;12.45;;;8.45;;
66087;SDS011;52872;52.994;6.940;2024-02-14T11:15:54;14.70;;;9.23;;
66087;SDS011;52872;52.994;6.940;2024-02-14T11:18:25;10.75;;;7.28;;
66087;SDS011;52872;52.994;6.940;2024-02-14T11:21:02;9.13;;;6.85;;
66087;SDS011;52872;52.994;6.940;2024-02-14T11:26:02;11.50;;;8.95;;
66087;SDS011;52872;52.994;6.940;2024-02-14T11:28:31;10.80;;;8.07;;
66087;SDS011;52872;52.994;6.940;2024-02-14T11:31:06;12.60;;;8.35;;
66087;SDS011;52872;52.994;6.940;2024-02-14T11:33:38;14.13;;;12.60;;
66087;SDS011;52872;52.994;6.940;2024-02-14T11:36:09;9.40;;;7.15;;
66087;SDS011;52872;52.994;6.940;2024-02-14T11:38:39;11.88;;;8.70;;
66087;SDS011;52872;52.994;6.940;2024-02-14T11:41:08;11.63;;;8.05;;
66087;SDS011;52872;52.994;6.940;2024-02-14T11:43:37;16.27;;;14.57;;
66087;SDS011;52872;52.994;6.940;2024-02-14T11:46:06;10.48;;;7.55;;
66087;SDS011;52872;52.994;6.940;2024-02-14T11:48:33;15.40;;;10.60;;
66087;SDS011;52872;52.994;6.940;2024-02-14T11:51:00;11.85;;;8.70;;
66087;SDS011;52872;52.994;6.940;2024-02-14T11:53:28;13.60;;;11.40;;
66087;SDS011;52872;52.994;6.940;2024-02-14T11:55:56;13.05;;;11.60;;
66087;SDS011;52872;52.994;6.940;2024-02-14T11:58:23;18.15;;;15.50;;
66087;SDS011;52872;52.994;6.940;2024-02-14T12:00:50;15.48;;;13.02;;
66087;SDS011;52872;52.994;6.940;2024-02-14T12:03:24;19.70;;;15.98;;
66087;SDS011;52872;52.994;6.940;2024-02-14T12:05:52;14.52;;;12.63;;
66087;SDS011;52872;52.994;6.940;2024-02-14T12:08:20;15.48;;;13.77;;
66087;SDS011;52872;52.994;6.940;2024-02-14T12:10:49;13.98;;;11.20;;
66087;SDS011;52872;52.994;6.940;2024-02-14T12:13:20;17.63;;;14.20;;
66087;SDS011;52872;52.994;6.940;2024-02-14T12:15:50;11.45;;;10.15;;
66087;SDS011;52872;52.994;6.940;2024-02-14T12:18:19;14.95;;;12.48;;
66087;SDS011;52872;52.994;6.940;2024-02-14T12:20:48;11.70;;;10.35;;
66087;SDS011;52872;52.994;6.940;2024-02-14T12:23:20;12.93;;;10.48;;
66087;SDS011;52872;52.994;6.940;2024-02-14T12:25:48;11.02;;;9.93;;
66087;SDS011;52872;52.994;6.940;2024-02-14T12:28:16;12.07;;;10.82;;
66087;SDS011;52872;52.994;6.940;2024-02-14T12:30:45;10.43;;;6.70;;
66087;SDS011;52872;52.994;6.940;2024-02-14T12:33:16;10.23;;;8.30;;
66087;SDS011;52872;52.994;6.940;2024-02-14T12:35:46;11.07;;;9.55;;
66087;SDS011;52872;52.994;6.940;2024-02-14T12:38:15;12.90;;;11.55;;
66087;SDS011;52872;52.994;6.940;2024-02-14T12:40:44;11.48;;;10.27;;
66087;SDS011;52872;52.994;6.940;2024-02-14T12:43:11;10.65;;;8.45;;
66087;SDS011;52872;52.994;6.940;2024-02-14T12:45:40;9.98;;;8.98;;
66087;SDS011;52872;52.994;6.940;2024-02-14T12:48:09;9.77;;;8.55;;
66087;SDS011;52872;52.994;6.940;2024-02-14T12:50:37;8.93;;;8.13;;
66087;SDS011;52872;52.994;6.940;2024-02-14T12:53:05;9.95;;;8.32;;
66087;SDS011;52872;52.994;6.940;2024-02-14T12:55:33;8.73;;;7.70;;
66087;SDS011;52872;52.994;6.940;2024-02-14T12:58:01;9.43;;;8.40;;
66087;SDS011;52872;52.994;6.940;2024-02-14T13:00:30;7.90;;;6.65;;
66087;SDS011;52872;52.994;6.940;2024-02-14T13:02:59;8.48;;;7.43;;
66087;SDS011;52872;52.994;6.940;2024-02-14T13:05:27;11.30;;;10.07;;
66087;SDS011;52872;52.994;6.940;2024-02-14T13:07:54;6.88;;;5.60;;
66087;SDS011;52872;52.994;6.940;2024-02-14T13:10:22;11.50;;;9.07;;
66087;SDS011;52872;52.994;6.940;2024-02-14T13:12:49;7.65;;;6.85;;
66087;SDS011;52872;52.994;6.940;2024-02-14T13:15:17;6.63;;;5.28;;
66087;SDS011;52872;52.994;6.940;2024-02-14T13:17:45;9.88;;;7.95;;
66087;SDS011;52872;52.994;6.940;2024-02-14T13:20:12;10.60;;;9.05;;
66087;SDS011;52872;52.994;6.940;2024-02-14T13:22:42;7.85;;;6.97;;
66087;SDS011;52872;52.994;6.940;2024-02-14T13:25:10;11.25;;;10.07;;
66087;SDS011;52872;52.994;6.940;2024-02-14T13:27:40;8.60;;;7.72;;
66087;SDS011;52872;52.994;6.940;2024-02-14T13:30:07;10.20;;;9.20;;
66087;SDS011;52872;52.994;6.940;2024-02-14T13:32:34;9.07;;;8.23;;
66087;SDS011;52872;52.994;6.940;2024-02-14T13:35:02;6.72;;;6.03;;
66087;SDS011;52872;52.994;6.940;2024-02-14T13:37:33;10.55;;;7.63;;
66087;SDS011;52872;52.994;6.940;2024-02-14T13:40:01;11.05;;;7.78;;
66087;SDS011;52872;52.994;6.940;2024-02-14T13:42:30;12.10;;;10.85;;
66087;SDS011;52872;52.994;6.940;2024-02-14T13:44:57;9.38;;;8.23;;
66087;SDS011;52872;52.994;6.940;2024-02-14T13:47:25;10.82;;;6.85;;
66087;SDS011;52872;52.994;6.940;2024-02-14T13:49:52;12.60;;;7.13;;
66087;SDS011;52872;52.994;6.940;2024-02-14T13:52:19;12.98;;;8.60;;
66087;SDS011;52872;52.994;6.940;2024-02-14T13:54:47;9.52;;;6.43;;
66087;SDS011;52872;52.994;6.940;2024-02-14T13:57:14;9.73;;;7.78;;
66087;SDS011;52872;52.994;6.940;2024-02-14T13:59:43;10.02;;;7.32;;
66087;SDS011;52872;52.994;6.940;2024-02-14T14:02:12;13.48;;;7.57;;
66087;SDS011;52872;52.994;6.940;2024-02-14T14:04:39;9.80;;;7.65;;
66087;SDS011;52872;52.994;6.940;2024-02-14T14:07:06;8.30;;;6.78;;
66087;SDS011;52872;52.994;6.940;2024-02-14T14:09:34;10.10;;;6.90;;
66087;SDS011;52872;52.994;6.940;2024-02-14T14:12:02;11.10;;;6.10;;
66087;SDS011;52872;52.994;6.940;2024-02-14T14:14:29;10.68;;;8.30;;
66087;SDS011;52872;52.994;6.940;2024-02-14T14:16:57;8.80;;;7.50;;
66087;SDS011;52872;52.994;6.940;2024-02-14T14:19:24;8.65;;;6.60;;
66087;SDS011;52872;52.994;6.940;2024-02-14T14:21:51;7.35;;;5.20;;
66087;SDS011;52872;52.994;6.940;2024-02-14T14:24:19;7.70;;;7.00;;
66087;SDS011;52872;52.994;6.940;2024-02-14T14:26:46;8.95;;;6.60;;
66087;SDS011;52872;52.994;6.940;2024-02-14T14:29:13;5.40;;;3.50;;
66087;SDS011;52872;52.994;6.940;2024-02-14T14:31:41;5.85;;;4.05;;
66087;SDS011;52872;52.994;6.940;2024-02-14T14:34:08;5.88;;;4.05;;
66087;SDS011;52872;52.994;6.940;2024-02-14T14:36:35;5.75;;;4.05;;
66087;SDS011;52872;52.994;6.940;2024-02-14T14:39:04;6.22;;;5.28;;
66087;SDS011;52872;52.994;6.940;2024-02-14T14:41:31;3.90;;;3.53;;
66087;SDS011;52872;52.994;6.940;2024-02-14T14:43:58;6.43;;;4.22;;
66087;SDS011;52872;52.994;6.940;2024-02-14T14:46:26;4.25;;;3.85;;
66087;SDS011;52872;52.994;6.940;2024-02-14T14:48:53;5.53;;;3.63;;
66087;SDS011;52872;52.994;6.940;2024-02-14T14:51:21;5.18;;;3.67;;
66087;SDS011;52872;52.994;6.940;2024-02-14T14:53:48;5.97;;;5.38;;
66087;SDS011;52872;52.994;6.940;2024-02-14T14:56:16;3.92;;;3.08;;
66087;SDS011;52872;52.994;6.940;2024-02-14T14:58:43;3.15;;;2.85;;
66087;SDS011;52872;52.994;6.940;2024-02-14T15:01:10;3.65;;;3.22;;